sensor_id;sensor_type;location;lat;lon;timestamp;temperature;humidity
15705;DHT22;7952;48.396;12.806;2024-02-04T00:01:24;10.00;53.20
15705;DHT22;7952;48.396;12.806;2024-02-04T00:03:50;10.00;53.20
15705;DHT22;7952;48.396;12.806;2024-02-04T00:06:15;10.00;53.20
15705;DHT22;7952;48.396;12.806;2024-02-04T00:08:41;10.10;53.20
15705;DHT22;7952;48.396;12.806;2024-02-04T00:11:07;10.00;53.20
15705;DHT22;7952;48.396;12.806;2024-02-04T00:13:34;10.00;53.20
15705;DHT22;7952;48.396;12.806;2024-02-04T00:15:59;10.00;53.20
15705;DHT22;7952;48.396;12.806;2024-02-04T00:18:25;10.00;53.20
15705;DHT22;7952;48.396;12.806;2024-02-04T00:20:51;10.00;53.20
15705;DHT22;7952;48.396;12.806;2024-02-04T00:23:16;10.00;53.30
15705;DHT22;7952;48.396;12.806;2024-02-04T00:25:42;10.00;53.30
15705;DHT22;7952;48.396;12.806;2024-02-04T00:28:08;10.00;53.30
15705;DHT22;7952;48.396;12.806;2024-02-04T00:30:37;10.00;53.30
15705;DHT22;7952;48.396;12.806;2024-02-04T00:33:03;10.00;53.30
15705;DHT22;7952;48.396;12.806;2024-02-04T00:35:29;10.00;53.30
15705;DHT22;7952;48.396;12.806;2024-02-04T00:37:55;10.00;53.30
15705;DHT22;7952;48.396;12.806;2024-02-04T00:40:21;10.00;53.30
15705;DHT22;7952;48.396;12.806;2024-02-04T00:42:46;10.00;53.40
15705;DHT22;7952;48.396;12.806;2024-02-04T00:45:12;10.00;53.40
15705;DHT22;7952;48.396;12.806;2024-02-04T00:47:37;10.00;53.40
15705;DHT22;7952;48.396;12.806;2024-02-04T00:50:03;10.00;53.50
15705;DHT22;7952;48.396;12.806;2024-02-04T00:52:29;9.90;54.40
15705;DHT22;7952;48.396;12.806;2024-02-04T00:54:55;9.90;54.40
15705;DHT22;7952;48.396;12.806;2024-02-04T00:57:20;9.90;54.40
15705;DHT22;7952;48.396;12.806;2024-02-04T00:59:46;9.90;54.50
15705;DHT22;7952;48.396;12.806;2024-02-04T01:02:11;9.90;54.50
15705;DHT22;7952;48.396;12.806;2024-02-04T01:04:37;9.90;54.50
15705;DHT22;7952;48.396;12.806;2024-02-04T01:07:02;9.90;54.50
15705;DHT22;7952;48.396;12.806;2024-02-04T01:09:28;9.90;55.10
15705;DHT22;7952;48.396;12.806;2024-02-04T01:11:54;9.90;54.50
15705;DHT22;7952;48.396;12.806;2024-02-04T01:14:20;9.90;54.60
15705;DHT22;7952;48.396;12.806;2024-02-04T01:16:45;9.80;54.50
15705;DHT22;7952;48.396;12.806;2024-02-04T01:19:11;9.90;54.60
15705;DHT22;7952;48.396;12.806;2024-02-04T01:21:36;9.90;54.60
15705;DHT22;7952;48.396;12.806;2024-02-04T01:24:02;9.80;54.60
15705;DHT22;7952;48.396;12.806;2024-02-04T01:26:28;9.80;54.60
15705;DHT22;7952;48.396;12.806;2024-02-04T01:28:53;9.90;54.70
15705;DHT22;7952;48.396;12.806;2024-02-04T01:31:19;9.80;54.60
15705;DHT22;7952;48.396;12.806;2024-02-04T01:33:45;9.90;54.70
15705;DHT22;7952;48.396;12.806;2024-02-04T01:36:11;9.90;54.70
15705;DHT22;7952;48.396;12.806;2024-02-04T01:38:36;9.90;54.70
15705;DHT22;7952;48.396;12.806;2024-02-04T01:41:02;9.90;54.60
15705;DHT22;7952;48.396;12.806;2024-02-04T01:43:27;9.90;54.60
15705;DHT22;7952;48.396;12.806;2024-02-04T01:45:53;9.90;54.60
15705;DHT22;7952;48.396;12.806;2024-02-04T01:48:20;9.90;54.60
15705;DHT22;7952;48.396;12.806;2024-02-04T01:50:46;9.90;54.60
15705;DHT22;7952;48.396;12.806;2024-02-04T01:53:13;9.90;54.70
15705;DHT22;7952;48.396;12.806;2024-02-04T01:55:40;9.90;54.70
15705;DHT22;7952;48.396;12.806;2024-02-04T01:58:06;9.90;54.70
15705;DHT22;7952;48.396;12.806;2024-02-04T02:00:32;10.00;53.90
15705;DHT22;7952;48.396;12.806;2024-02-04T02:02:59;9.90;54.80
15705;DHT22;7952;48.396;12.806;2024-02-04T02:05:26;9.90;54.80
15705;DHT22;7952;48.396;12.806;2024-02-04T02:07:51;9.90;54.90
15705;DHT22;7952;48.396;12.806;2024-02-04T02:10:20;9.80;54.70
15705;DHT22;7952;48.396;12.806;2024-02-04T02:12:52;9.90;54.90
15705;DHT22;7952;48.396;12.806;2024-02-04T02:15:27;9.90;54.90
15705;DHT22;7952;48.396;12.806;2024-02-04T02:18:10;9.80;54.80
15705;DHT22;7952;48.396;12.806;2024-02-04T02:21:01;9.90;54.90
15705;DHT22;7952;48.396;12.806;2024-02-04T02:23:35;9.80;54.90
15705;DHT22;7952;48.396;12.806;2024-02-04T02:26:03;9.80;54.90
15705;DHT22;7952;48.396;12.806;2024-02-04T02:28:29;9.80;54.90
15705;DHT22;7952;48.396;12.806;2024-02-04T02:30:55;9.80;55.00
15705;DHT22;7952;48.396;12.806;2024-02-04T02:33:20;9.80;55.00
15705;DHT22;7952;48.396;12.806;2024-02-04T02:35:53;9.80;55.00
15705;DHT22;7952;48.396;12.806;2024-02-04T02:38:35;9.80;55.00
15705;DHT22;7952;48.396;12.806;2024-02-04T02:41:06;9.80;55.00
15705;DHT22;7952;48.396;12.806;2024-02-04T02:43:33;9.80;55.00
15705;DHT22;7952;48.396;12.806;2024-02-04T02:46:00;9.80;55.00
15705;DHT22;7952;48.396;12.806;2024-02-04T02:48:26;9.90;55.20
15705;DHT22;7952;48.396;12.806;2024-02-04T02:50:53;9.90;55.10
15705;DHT22;7952;48.396;12.806;2024-02-04T02:53:19;9.90;55.20
15705;DHT22;7952;48.396;12.806;2024-02-04T02:55:45;9.90;55.20
15705;DHT22;7952;48.396;12.806;2024-02-04T02:58:12;9.90;55.20
15705;DHT22;7952;48.396;12.806;2024-02-04T03:00:38;9.80;55.20
15705;DHT22;7952;48.396;12.806;2024-02-04T03:03:03;9.90;55.20
15705;DHT22;7952;48.396;12.806;2024-02-04T03:05:29;9.80;55.20
15705;DHT22;7952;48.396;12.806;2024-02-04T03:07:55;9.90;55.30
15705;DHT22;7952;48.396;12.806;2024-02-04T03:10:20;9.90;55.30
15705;DHT22;7952;48.396;12.806;2024-02-04T03:12:46;9.90;55.30
15705;DHT22;7952;48.396;12.806;2024-02-04T03:15:11;9.80;55.20
15705;DHT22;7952;48.396;12.806;2024-02-04T03:17:37;9.80;55.20
15705;DHT22;7952;48.396;12.806;2024-02-04T03:20:02;9.90;55.30
15705;DHT22;7952;48.396;12.806;2024-02-04T03:22:28;9.80;55.20
15705;DHT22;7952;48.396;12.806;2024-02-04T03:24:54;9.90;55.30
15705;DHT22;7952;48.396;12.806;2024-02-04T03:27:21;9.90;55.30
15705;DHT22;7952;48.396;12.806;2024-02-04T03:29:46;9.80;55.30
15705;DHT22;7952;48.396;12.806;2024-02-04T03:32:12;9.90;55.40
15705;DHT22;7952;48.396;12.806;2024-02-04T03:34:37;9.80;55.30
15705;DHT22;7952;48.396;12.806;2024-02-04T03:37:05;9.90;55.40
15705;DHT22;7952;48.396;12.806;2024-02-04T03:39:30;9.80;55.30
15705;DHT22;7952;48.396;12.806;2024-02-04T03:41:56;9.80;55.40
15705;DHT22;7952;48.396;12.806;2024-02-04T03:44:21;9.90;55.50
15705;DHT22;7952;48.396;12.806;2024-02-04T03:46:48;9.90;55.50
15705;DHT22;7952;48.396;12.806;2024-02-04T03:49:14;9.80;55.40
15705;DHT22;7952;48.396;12.806;2024-02-04T03:51:40;9.80;55.40
15705;DHT22;7952;48.396;12.806;2024-02-04T03:54:05;9.80;55.50
15705;DHT22;7952;48.396;12.806;2024-02-04T03:56:31;9.80;55.50
15705;DHT22;7952;48.396;12.806;2024-02-04T03:58:56;9.80;55.50
15705;DHT22;7952;48.396;12.806;2024-02-04T04:01:22;9.80;55.50
15705;DHT22;7952;48.396;12.806;2024-02-04T04:03:47;9.80;55.50
15705;DHT22;7952;48.396;12.806;2024-02-04T04:06:13;9.80;55.60
15705;DHT22;7952;48.396;12.806;2024-02-04T04:08:39;9.80;55.50
15705;DHT22;7952;48.396;12.806;2024-02-04T04:11:06;9.80;55.60
15705;DHT22;7952;48.396;12.806;2024-02-04T04:13:32;9.80;55.50
15705;DHT22;7952;48.396;12.806;2024-02-04T04:16:00;9.80;55.50
15705;DHT22;7952;48.396;12.806;2024-02-04T04:18:25;9.70;55.40
15705;DHT22;7952;48.396;12.806;2024-02-04T04:20:51;9.80;55.50
15705;DHT22;7952;48.396;12.806;2024-02-04T04:23:16;9.80;55.60
15705;DHT22;7952;48.396;12.806;2024-02-04T04:25:42;9.70;55.50
15705;DHT22;7952;48.396;12.806;2024-02-04T04:28:08;9.70;55.50
15705;DHT22;7952;48.396;12.806;2024-02-04T04:30:33;9.70;55.50
15705;DHT22;7952;48.396;12.806;2024-02-04T04:32:59;9.70;55.60
15705;DHT22;7952;48.396;12.806;2024-02-04T04:35:25;9.70;55.60
15705;DHT22;7952;48.396;12.806;2024-02-04T04:37:50;9.70;55.70
15705;DHT22;7952;48.396;12.806;2024-02-04T04:40:16;9.70;55.70
15705;DHT22;7952;48.396;12.806;2024-02-04T04:42:42;9.70;55.70
15705;DHT22;7952;48.396;12.806;2024-02-04T04:45:07;9.70;55.80
15705;DHT22;7952;48.396;12.806;2024-02-04T04:47:34;9.70;55.80
15705;DHT22;7952;48.396;12.806;2024-02-04T04:50:00;9.70;55.80
15705;DHT22;7952;48.396;12.806;2024-02-04T04:52:25;9.70;55.80
15705;DHT22;7952;48.396;12.806;2024-02-04T04:54:51;9.70;55.90
15705;DHT22;7952;48.396;12.806;2024-02-04T04:57:16;9.60;55.80
15705;DHT22;7952;48.396;12.806;2024-02-04T04:59:42;9.70;55.90
15705;DHT22;7952;48.396;12.806;2024-02-04T05:02:08;9.60;55.80
15705;DHT22;7952;48.396;12.806;2024-02-04T05:04:36;9.60;55.90
15705;DHT22;7952;48.396;12.806;2024-02-04T05:07:01;9.60;55.90
15705;DHT22;7952;48.396;12.806;2024-02-04T05:09:27;9.60;55.90
15705;DHT22;7952;48.396;12.806;2024-02-04T05:11:52;9.60;56.00
15705;DHT22;7952;48.396;12.806;2024-02-04T05:14:18;9.60;56.00
15705;DHT22;7952;48.396;12.806;2024-02-04T05:16:43;9.60;56.00
15705;DHT22;7952;48.396;12.806;2024-02-04T05:19:10;9.60;56.10
15705;DHT22;7952;48.396;12.806;2024-02-04T05:21:40;9.60;56.10
15705;DHT22;7952;48.396;12.806;2024-02-04T05:24:06;9.60;56.10
15705;DHT22;7952;48.396;12.806;2024-02-04T05:26:31;9.60;56.10
15705;DHT22;7952;48.396;12.806;2024-02-04T05:28:57;9.60;56.20
15705;DHT22;7952;48.396;12.806;2024-02-04T05:31:23;9.60;56.20
15705;DHT22;7952;48.396;12.806;2024-02-04T05:33:48;9.60;56.20
15705;DHT22;7952;48.396;12.806;2024-02-04T05:36:14;9.60;56.20
15705;DHT22;7952;48.396;12.806;2024-02-04T05:38:42;9.60;56.20
15705;DHT22;7952;48.396;12.806;2024-02-04T05:41:08;9.60;56.20
15705;DHT22;7952;48.396;12.806;2024-02-04T05:43:33;9.60;56.30
15705;DHT22;7952;48.396;12.806;2024-02-04T05:45:59;9.60;56.30
15705;DHT22;7952;48.396;12.806;2024-02-04T05:48:24;9.60;56.30
15705;DHT22;7952;48.396;12.806;2024-02-04T05:50:50;9.60;56.40
15705;DHT22;7952;48.396;12.806;2024-02-04T05:53:15;9.60;56.40
15705;DHT22;7952;48.396;12.806;2024-02-04T05:55:41;9.60;56.40
15705;DHT22;7952;48.396;12.806;2024-02-04T05:58:06;9.60;56.40
15705;DHT22;7952;48.396;12.806;2024-02-04T06:00:32;9.60;56.40
15705;DHT22;7952;48.396;12.806;2024-02-04T06:02:57;9.60;56.40
15705;DHT22;7952;48.396;12.806;2024-02-04T06:05:23;9.60;56.40
15705;DHT22;7952;48.396;12.806;2024-02-04T06:07:48;9.60;56.40
15705;DHT22;7952;48.396;12.806;2024-02-04T06:10:14;9.60;56.40
15705;DHT22;7952;48.396;12.806;2024-02-04T06:12:40;9.60;56.40
15705;DHT22;7952;48.396;12.806;2024-02-04T06:15:14;9.60;56.40
15705;DHT22;7952;48.396;12.806;2024-02-04T06:17:40;9.60;56.40
15705;DHT22;7952;48.396;12.806;2024-02-04T06:20:05;9.60;56.40
15705;DHT22;7952;48.396;12.806;2024-02-04T06:22:32;9.60;56.40
15705;DHT22;7952;48.396;12.806;2024-02-04T06:24:57;9.60;56.40
15705;DHT22;7952;48.396;12.806;2024-02-04T06:27:23;9.60;56.40
15705;DHT22;7952;48.396;12.806;2024-02-04T06:29:48;9.60;56.40
15705;DHT22;7952;48.396;12.806;2024-02-04T06:32:14;9.60;56.40
15705;DHT22;7952;48.396;12.806;2024-02-04T06:34:40;9.60;56.40
15705;DHT22;7952;48.396;12.806;2024-02-04T06:37:05;9.60;56.50
15705;DHT22;7952;48.396;12.806;2024-02-04T06:39:31;9.60;56.50
15705;DHT22;7952;48.396;12.806;2024-02-04T06:41:56;9.60;56.50
15705;DHT22;7952;48.396;12.806;2024-02-04T06:44:22;9.60;56.50
15705;DHT22;7952;48.396;12.806;2024-02-04T06:46:47;9.60;56.50
15705;DHT22;7952;48.396;12.806;2024-02-04T06:49:13;9.60;56.50
15705;DHT22;7952;48.396;12.806;2024-02-04T06:51:43;9.60;56.50
15705;DHT22;7952;48.396;12.806;2024-02-04T06:54:10;9.70;56.60
15705;DHT22;7952;48.396;12.806;2024-02-04T06:56:35;9.70;56.70
15705;DHT22;7952;48.396;12.806;2024-02-04T06:59:02;9.70;56.70
15705;DHT22;7952;48.396;12.806;2024-02-04T07:01:27;9.70;56.70
15705;DHT22;7952;48.396;12.806;2024-02-04T07:03:53;9.70;56.70
15705;DHT22;7952;48.396;12.806;2024-02-04T07:06:19;9.70;56.70
15705;DHT22;7952;48.396;12.806;2024-02-04T07:08:44;9.70;56.70
15705;DHT22;7952;48.396;12.806;2024-02-04T07:11:10;9.70;56.70
15705;DHT22;7952;48.396;12.806;2024-02-04T07:13:35;9.70;56.70
15705;DHT22;7952;48.396;12.806;2024-02-04T07:16:01;9.70;56.70
15705;DHT22;7952;48.396;12.806;2024-02-04T07:18:26;9.80;56.80
15705;DHT22;7952;48.396;12.806;2024-02-04T07:20:52;9.80;56.80
15705;DHT22;7952;48.396;12.806;2024-02-04T07:23:17;9.80;56.80
15705;DHT22;7952;48.396;12.806;2024-02-04T07:25:43;9.80;56.80
15705;DHT22;7952;48.396;12.806;2024-02-04T07:28:09;9.80;56.80
15705;DHT22;7952;48.396;12.806;2024-02-04T07:30:34;9.80;56.80
15705;DHT22;7952;48.396;12.806;2024-02-04T07:33:00;9.80;56.80
15705;DHT22;7952;48.396;12.806;2024-02-04T07:35:25;9.80;57.40
15705;DHT22;7952;48.396;12.806;2024-02-04T07:37:51;9.80;56.80
15705;DHT22;7952;48.396;12.806;2024-02-04T07:40:16;9.80;56.80
15705;DHT22;7952;48.396;12.806;2024-02-04T07:42:42;9.90;56.90
15705;DHT22;7952;48.396;12.806;2024-02-04T07:45:08;9.90;56.90
15705;DHT22;7952;48.396;12.806;2024-02-04T07:47:34;9.90;56.90
15705;DHT22;7952;48.396;12.806;2024-02-04T07:50:00;10.00;56.00
15705;DHT22;7952;48.396;12.806;2024-02-04T07:52:25;10.00;56.00
15705;DHT22;7952;48.396;12.806;2024-02-04T07:54:51;10.00;56.00
15705;DHT22;7952;48.396;12.806;2024-02-04T07:57:16;10.10;56.00
15705;DHT22;7952;48.396;12.806;2024-02-04T07:59:42;10.00;56.00
15705;DHT22;7952;48.396;12.806;2024-02-04T08:02:08;10.00;56.00
15705;DHT22;7952;48.396;12.806;2024-02-04T08:04:33;10.10;56.10
15705;DHT22;7952;48.396;12.806;2024-02-04T08:06:59;10.10;56.10
15705;DHT22;7952;48.396;12.806;2024-02-04T08:09:24;10.10;56.00
15705;DHT22;7952;48.396;12.806;2024-02-04T08:11:50;10.10;56.10
15705;DHT22;7952;48.396;12.806;2024-02-04T08:14:15;10.10;56.00
15705;DHT22;7952;48.396;12.806;2024-02-04T08:16:43;10.10;56.10
15705;DHT22;7952;48.396;12.806;2024-02-04T08:19:08;10.20;56.10
15705;DHT22;7952;48.396;12.806;2024-02-04T08:21:34;10.20;56.10
15705;DHT22;7952;48.396;12.806;2024-02-04T08:23:59;10.20;56.10
15705;DHT22;7952;48.396;12.806;2024-02-04T08:26:25;10.20;56.10
15705;DHT22;7952;48.396;12.806;2024-02-04T08:28:51;10.20;56.10
15705;DHT22;7952;48.396;12.806;2024-02-04T08:31:16;10.20;56.10
15705;DHT22;7952;48.396;12.806;2024-02-04T08:33:42;10.30;56.10
15705;DHT22;7952;48.396;12.806;2024-02-04T08:36:08;10.30;56.10
15705;DHT22;7952;48.396;12.806;2024-02-04T08:38:36;10.30;56.10
15705;DHT22;7952;48.396;12.806;2024-02-04T08:41:04;10.40;56.10
15705;DHT22;7952;48.396;12.806;2024-02-04T08:43:30;10.30;56.00
15705;DHT22;7952;48.396;12.806;2024-02-04T08:45:55;10.30;56.10
15705;DHT22;7952;48.396;12.806;2024-02-04T08:48:21;10.40;56.10
15705;DHT22;7952;48.396;12.806;2024-02-04T08:50:46;10.40;56.10
15705;DHT22;7952;48.396;12.806;2024-02-04T08:53:12;10.40;56.10
15705;DHT22;7952;48.396;12.806;2024-02-04T08:55:41;10.50;56.30
15705;DHT22;7952;48.396;12.806;2024-02-04T08:58:33;10.50;56.20
15705;DHT22;7952;48.396;12.806;2024-02-04T09:01:01;10.50;56.20
15705;DHT22;7952;48.396;12.806;2024-02-04T09:03:26;10.60;56.20
15705;DHT22;7952;48.396;12.806;2024-02-04T09:05:52;10.60;56.20
15705;DHT22;7952;48.396;12.806;2024-02-04T09:08:18;10.60;56.10
15705;DHT22;7952;48.396;12.806;2024-02-04T09:10:43;10.60;56.10
15705;DHT22;7952;48.396;12.806;2024-02-04T09:13:09;10.60;56.10
15705;DHT22;7952;48.396;12.806;2024-02-04T09:15:37;10.60;56.20
15705;DHT22;7952;48.396;12.806;2024-02-04T09:18:06;10.60;56.20
15705;DHT22;7952;48.396;12.806;2024-02-04T09:20:32;10.60;56.20
15705;DHT22;7952;48.396;12.806;2024-02-04T09:22:57;10.60;56.20
15705;DHT22;7952;48.396;12.806;2024-02-04T09:25:27;10.60;56.20
15705;DHT22;7952;48.396;12.806;2024-02-04T09:27:53;10.60;56.20
15705;DHT22;7952;48.396;12.806;2024-02-04T09:30:18;10.60;56.20
15705;DHT22;7952;48.396;12.806;2024-02-04T09:33:32;10.70;56.30
15705;DHT22;7952;48.396;12.806;2024-02-04T09:35:53;10.70;56.30
15705;DHT22;7952;48.396;12.806;2024-02-04T09:38:33;10.70;56.30
15705;DHT22;7952;48.396;12.806;2024-02-04T09:41:22;10.70;56.30
15705;DHT22;7952;48.396;12.806;2024-02-04T09:43:50;10.80;56.40
15705;DHT22;7952;48.396;12.806;2024-02-04T09:46:18;10.80;56.40
15705;DHT22;7952;48.396;12.806;2024-02-04T09:48:59;10.80;56.40
15705;DHT22;7952;48.396;12.806;2024-02-04T09:51:31;10.80;56.40
15705;DHT22;7952;48.396;12.806;2024-02-04T09:54:00;10.90;56.40
15705;DHT22;7952;48.396;12.806;2024-02-04T09:56:37;10.90;56.40
15705;DHT22;7952;48.396;12.806;2024-02-04T10:06:22;11.00;56.40
15705;DHT22;7952;48.396;12.806;2024-02-04T10:08:48;11.00;56.40
15705;DHT22;7952;48.396;12.806;2024-02-04T10:20:57;11.10;56.40
15705;DHT22;7952;48.396;12.806;2024-02-04T10:37:07;11.00;56.40
15705;DHT22;7952;48.396;12.806;2024-02-04T10:40:00;11.10;56.50
15705;DHT22;7952;48.396;12.806;2024-02-04T10:43:12;11.10;56.50
15705;DHT22;7952;48.396;12.806;2024-02-04T10:52:15;11.20;56.60
15705;DHT22;7952;48.396;12.806;2024-02-04T10:54:44;11.20;56.50
15705;DHT22;7952;48.396;12.806;2024-02-04T11:00:48;11.30;56.60
15705;DHT22;7952;48.396;12.806;2024-02-04T11:03:34;11.40;56.60
15705;DHT22;7952;48.396;12.806;2024-02-04T11:12:49;11.60;56.70
15705;DHT22;7952;48.396;12.806;2024-02-04T11:15:17;11.70;56.70
15705;DHT22;7952;48.396;12.806;2024-02-04T11:21:02;11.80;56.50
15705;DHT22;7952;48.396;12.806;2024-02-04T11:23:56;11.90;57.00
15705;DHT22;7952;48.396;12.806;2024-02-04T11:26:28;11.90;56.30
15705;DHT22;7952;48.396;12.806;2024-02-04T11:28:53;11.90;56.30
15705;DHT22;7952;48.396;12.806;2024-02-04T11:31:19;11.90;56.20
15705;DHT22;7952;48.396;12.806;2024-02-04T11:33:45;11.90;56.20
15705;DHT22;7952;48.396;12.806;2024-02-04T11:36:25;11.90;56.20
15705;DHT22;7952;48.396;12.806;2024-02-04T11:38:51;11.80;56.10
15705;DHT22;7952;48.396;12.806;2024-02-04T11:41:26;11.80;56.20
15705;DHT22;7952;48.396;12.806;2024-02-04T11:43:56;11.80;56.20
15705;DHT22;7952;48.396;12.806;2024-02-04T11:46:22;11.80;56.20
15705;DHT22;7952;48.396;12.806;2024-02-04T11:48:53;11.80;56.20
15705;DHT22;7952;48.396;12.806;2024-02-04T11:51:22;11.80;56.20
15705;DHT22;7952;48.396;12.806;2024-02-04T11:53:54;11.70;56.10
15705;DHT22;7952;48.396;12.806;2024-02-04T11:56:23;11.80;56.20
15705;DHT22;7952;48.396;12.806;2024-02-04T11:58:49;11.80;56.30
15705;DHT22;7952;48.396;12.806;2024-02-04T12:01:15;11.80;56.30
15705;DHT22;7952;48.396;12.806;2024-02-04T12:03:41;11.80;56.20
15705;DHT22;7952;48.396;12.806;2024-02-04T12:06:07;11.80;56.30
15705;DHT22;7952;48.396;12.806;2024-02-04T12:08:34;11.80;56.20
15705;DHT22;7952;48.396;12.806;2024-02-04T12:11:01;11.80;56.20
15705;DHT22;7952;48.396;12.806;2024-02-04T12:13:31;11.80;56.20
15705;DHT22;7952;48.396;12.806;2024-02-04T12:15:57;11.80;56.20
15705;DHT22;7952;48.396;12.806;2024-02-04T12:18:23;11.80;56.20
15705;DHT22;7952;48.396;12.806;2024-02-04T12:20:49;11.80;56.20
15705;DHT22;7952;48.396;12.806;2024-02-04T12:23:18;11.80;56.20
15705;DHT22;7952;48.396;12.806;2024-02-04T12:25:45;11.80;56.20
15705;DHT22;7952;48.396;12.806;2024-02-04T12:28:14;11.90;56.30
15705;DHT22;7952;48.396;12.806;2024-02-04T12:30:40;11.90;56.30
15705;DHT22;7952;48.396;12.806;2024-02-04T12:33:06;11.90;56.30
15705;DHT22;7952;48.396;12.806;2024-02-04T12:35:32;11.90;56.30
15705;DHT22;7952;48.396;12.806;2024-02-04T12:37:59;11.90;56.30
15705;DHT22;7952;48.396;12.806;2024-02-04T12:40:30;11.90;56.30
15705;DHT22;7952;48.396;12.806;2024-02-04T12:43:00;11.90;56.30
15705;DHT22;7952;48.396;12.806;2024-02-04T12:45:28;11.90;56.30
15705;DHT22;7952;48.396;12.806;2024-02-04T12:47:56;11.90;56.30
15705;DHT22;7952;48.396;12.806;2024-02-04T12:50:22;11.90;56.30
15705;DHT22;7952;48.396;12.806;2024-02-04T12:53:02;11.90;56.30
15705;DHT22;7952;48.396;12.806;2024-02-04T12:55:28;11.90;56.30
15705;DHT22;7952;48.396;12.806;2024-02-04T12:58:08;11.90;56.30
15705;DHT22;7952;48.396;12.806;2024-02-04T13:00:36;11.90;56.30
15705;DHT22;7952;48.396;12.806;2024-02-04T13:03:03;11.90;56.30
15705;DHT22;7952;48.396;12.806;2024-02-04T13:05:30;11.80;56.20
15705;DHT22;7952;48.396;12.806;2024-02-04T13:08:00;11.80;56.20
15705;DHT22;7952;48.396;12.806;2024-02-04T13:10:32;11.90;56.40
15705;DHT22;7952;48.396;12.806;2024-02-04T13:13:08;11.90;56.30
15705;DHT22;7952;48.396;12.806;2024-02-04T13:15:43;11.80;56.20
15705;DHT22;7952;48.396;12.806;2024-02-04T13:18:09;11.80;56.20
15705;DHT22;7952;48.396;12.806;2024-02-04T13:20:37;11.80;56.30
15705;DHT22;7952;48.396;12.806;2024-02-04T13:23:03;11.80;56.30
15705;DHT22;7952;48.396;12.806;2024-02-04T13:25:31;11.80;56.30
15705;DHT22;7952;48.396;12.806;2024-02-04T13:27:57;11.80;56.30
15705;DHT22;7952;48.396;12.806;2024-02-04T13:30:23;11.80;56.30
15705;DHT22;7952;48.396;12.806;2024-02-04T13:32:49;11.80;56.30
15705;DHT22;7952;48.396;12.806;2024-02-04T13:35:15;11.80;56.30
15705;DHT22;7952;48.396;12.806;2024-02-04T13:37:46;11.80;56.30
15705;DHT22;7952;48.396;12.806;2024-02-04T13:40:20;11.80;56.30
15705;DHT22;7952;48.396;12.806;2024-02-04T13:42:47;11.90;56.50
15705;DHT22;7952;48.396;12.806;2024-02-04T13:45:13;11.90;56.40
15705;DHT22;7952;48.396;12.806;2024-02-04T13:47:39;11.90;56.30
15705;DHT22;7952;48.396;12.806;2024-02-04T13:50:06;11.90;56.30
15705;DHT22;7952;48.396;12.806;2024-02-04T13:52:34;11.90;56.20
15705;DHT22;7952;48.396;12.806;2024-02-04T13:55:00;12.00;56.30
15705;DHT22;7952;48.396;12.806;2024-02-04T13:57:26;12.00;56.30
15705;DHT22;7952;48.396;12.806;2024-02-04T13:59:52;12.00;56.30
15705;DHT22;7952;48.396;12.806;2024-02-04T14:02:17;12.00;56.30
15705;DHT22;7952;48.396;12.806;2024-02-04T14:04:43;12.00;56.30
15705;DHT22;7952;48.396;12.806;2024-02-04T14:07:09;12.00;56.30
15705;DHT22;7952;48.396;12.806;2024-02-04T14:09:35;12.00;56.30
15705;DHT22;7952;48.396;12.806;2024-02-04T14:12:02;12.00;56.30
15705;DHT22;7952;48.396;12.806;2024-02-04T14:14:31;12.00;56.30
15705;DHT22;7952;48.396;12.806;2024-02-04T14:16:57;12.00;56.20
15705;DHT22;7952;48.396;12.806;2024-02-04T14:19:26;11.90;56.20
15705;DHT22;7952;48.396;12.806;2024-02-04T14:21:51;12.00;56.30
15705;DHT22;7952;48.396;12.806;2024-02-04T14:24:20;12.00;56.30
15705;DHT22;7952;48.396;12.806;2024-02-04T14:26:46;12.00;56.30
15705;DHT22;7952;48.396;12.806;2024-02-04T14:29:11;12.00;56.30
15705;DHT22;7952;48.396;12.806;2024-02-04T14:31:37;11.90;56.20
15705;DHT22;7952;48.396;12.806;2024-02-04T14:34:03;11.90;56.20
15705;DHT22;7952;48.396;12.806;2024-02-04T14:36:42;11.90;56.30
15705;DHT22;7952;48.396;12.806;2024-02-04T14:39:08;11.90;56.30
15705;DHT22;7952;48.396;12.806;2024-02-04T14:41:37;11.90;56.30
15705;DHT22;7952;48.396;12.806;2024-02-04T14:44:10;11.90;56.30
15705;DHT22;7952;48.396;12.806;2024-02-04T14:46:49;11.90;56.30
15705;DHT22;7952;48.396;12.806;2024-02-04T14:49:17;11.90;56.30
15705;DHT22;7952;48.396;12.806;2024-02-04T14:51:43;11.90;56.40
15705;DHT22;7952;48.396;12.806;2024-02-04T14:54:09;11.90;56.40
15705;DHT22;7952;48.396;12.806;2024-02-04T14:56:41;11.90;56.40
15705;DHT22;7952;48.396;12.806;2024-02-04T14:59:11;11.90;56.40
15705;DHT22;7952;48.396;12.806;2024-02-04T15:01:37;11.90;56.30
15705;DHT22;7952;48.396;12.806;2024-02-04T15:04:04;11.90;56.40
15705;DHT22;7952;48.396;12.806;2024-02-04T15:06:30;11.90;56.40
15705;DHT22;7952;48.396;12.806;2024-02-04T15:08:57;11.90;56.40
15705;DHT22;7952;48.396;12.806;2024-02-04T15:11:25;11.90;56.40
15705;DHT22;7952;48.396;12.806;2024-02-04T15:13:52;11.90;56.30
15705;DHT22;7952;48.396;12.806;2024-02-04T15:16:19;11.90;56.30
15705;DHT22;7952;48.396;12.806;2024-02-04T15:18:44;11.90;56.30
15705;DHT22;7952;48.396;12.806;2024-02-04T15:21:10;11.90;56.40
15705;DHT22;7952;48.396;12.806;2024-02-04T15:23:44;11.90;56.30
15705;DHT22;7952;48.396;12.806;2024-02-04T15:26:14;11.90;56.30
15705;DHT22;7952;48.396;12.806;2024-02-04T15:28:41;11.90;56.30
15705;DHT22;7952;48.396;12.806;2024-02-04T15:31:08;12.00;56.30
15705;DHT22;7952;48.396;12.806;2024-02-04T15:33:34;12.00;56.30
15705;DHT22;7952;48.396;12.806;2024-02-04T15:36:20;12.00;56.30
15705;DHT22;7952;48.396;12.806;2024-02-04T15:38:49;12.00;56.30
15705;DHT22;7952;48.396;12.806;2024-02-04T15:41:15;12.00;56.20
15705;DHT22;7952;48.396;12.806;2024-02-04T15:43:41;12.00;56.20
15705;DHT22;7952;48.396;12.806;2024-02-04T15:46:09;12.00;56.30
15705;DHT22;7952;48.396;12.806;2024-02-04T15:48:38;12.00;56.30
15705;DHT22;7952;48.396;12.806;2024-02-04T15:51:08;12.00;56.40
15705;DHT22;7952;48.396;12.806;2024-02-04T15:53:44;11.90;56.20
15705;DHT22;7952;48.396;12.806;2024-02-04T15:56:13;11.90;56.20
15705;DHT22;7952;48.396;12.806;2024-02-04T15:58:59;11.90;56.30
15705;DHT22;7952;48.396;12.806;2024-02-04T16:01:29;12.00;56.40
15705;DHT22;7952;48.396;12.806;2024-02-04T16:03:55;12.00;56.40
15705;DHT22;7952;48.396;12.806;2024-02-04T16:08:58;12.00;56.40
15705;DHT22;7952;48.396;12.806;2024-02-04T16:11:25;12.00;56.40
15705;DHT22;7952;48.396;12.806;2024-02-04T16:13:52;12.00;56.40
15705;DHT22;7952;48.396;12.806;2024-02-04T16:16:26;12.00;56.40
15705;DHT22;7952;48.396;12.806;2024-02-04T16:18:55;12.00;56.30
15705;DHT22;7952;48.396;12.806;2024-02-04T16:21:22;12.10;56.40
15705;DHT22;7952;48.396;12.806;2024-02-04T16:23:48;12.10;56.40
15705;DHT22;7952;48.396;12.806;2024-02-04T16:26:14;12.10;56.40
15705;DHT22;7952;48.396;12.806;2024-02-04T16:28:39;12.10;56.30
15705;DHT22;7952;48.396;12.806;2024-02-04T16:31:12;12.20;56.40
15705;DHT22;7952;48.396;12.806;2024-02-04T16:33:40;12.20;56.40